Time;durP1;ratioP1;P1;durP2;ratioP2;P2;SDS_P1;SDS_P2;PMS_P1;PMS_P2;Temp;Humidity;BMP_temperature;BMP_pressure;BME280_temperature;BME280_humidity;BME280_pressure;Samples;Min_cycle;Max_cycle;Signal;HPM_P1;HPM_P2
2024/02/02 00:00:07;;;;;;;28.63;15.67;;;;;;;-2.55;96.42;100953.41;5049061;28;20032;-64
2024/02/02 00:02:37;;;;;;;24.30;13.43;;;;;;;-2.15;96.42;101025.53;5049522;28;20049;-65
2024/02/02 00:05:06;;;;;;;26.97;12.90;;;;;;;-2.32;96.88;101007.09;5048798;28;20112;-69
2024/02/02 00:07:32;;;;;;;23.30;13.02;;;;;;;-2.24;97.33;101029.66;5037277;28;20033;-68
2024/02/02 00:09:57;;;;;;;23.97;13.10;;;;;;;-2.22;97.88;101045.91;5053731;28;20021;-69
2024/02/02 00:12:23;;;;;;;28.10;14.57;;;;;;;-2.17;98.23;101024.47;5052549;28;20051;-66
2024/02/02 00:14:49;;;;;;;26.10;14.60;;;;;;;-2.17;98.35;101001.69;5052999;28;20024;-71
2024/02/02 00:17:15;;;;;;;24.97;13.90;;;;;;;-2.25;98.12;100984.91;5053795;28;20108;-65
2024/02/02 00:19:40;;;;;;;27.30;15.13;;;;;;;-2.14;98.24;101020.59;5052904;28;20025;-67
2024/02/02 00:22:07;;;;;;;23.20;14.23;;;;;;;-2.26;98.25;100990.72;5052409;28;20087;-64
2024/02/02 00:24:33;;;;;;;33.97;16.90;;;;;;;-2.13;98.78;101007.22;5053293;28;20033;-64
2024/02/02 00:26:58;;;;;;;33.87;18.03;;;;;;;-2.09;98.90;101025.19;5052576;28;20412;-66
2024/02/02 00:29:24;;;;;;;25.13;13.97;;;;;;;-2.07;98.99;101003.47;5052433;28;20040;-66
2024/02/02 00:31:49;;;;;;;30.37;15.60;;;;;;;-2.35;99.71;100976.44;5052549;28;20040;-64
2024/02/02 00:34:15;;;;;;;29.07;16.03;;;;;;;-2.08;100.00;101011.81;5052292;28;20610;-66
2024/02/02 00:36:40;;;;;;;26.23;16.43;;;;;;;-2.16;100.00;100993.38;5052189;28;20048;-67
2024/02/02 00:39:06;;;;;;;33.63;16.73;;;;;;;-2.05;100.00;100999.47;5052471;28;20060;-65
2024/02/02 00:41:31;;;;;;;26.83;15.77;;;;;;;-2.07;100.00;101006.88;5052514;28;20048;-68
2024/02/02 00:43:57;;;;;;;36.43;19.27;;;;;;;-1.98;100.00;101009.44;5052987;28;20025;-66
2024/02/02 00:46:22;;;;;;;27.43;15.87;;;;;;;-2.03;100.00;101013.13;5051813;28;20040;-66
2024/02/02 00:48:48;;;;;;;31.80;15.90;;;;;;;-1.93;100.00;101018.34;5016540;28;20106;-66
2024/02/02 00:51:13;;;;;;;30.93;16.10;;;;;;;-2.04;100.00;100994.53;5052101;28;20547;-67
2024/02/02 00:53:39;;;;;;;32.37;18.03;;;;;;;-1.96;100.00;101010.47;5052140;28;20035;-65
2024/02/02 00:56:05;;;;;;;29.00;16.50;;;;;;;-1.90;100.00;101002.56;5051366;28;20036;-66
2024/02/02 00:58:30;;;;;;;30.80;15.47;;;;;;;-1.83;100.00;101004.94;5052534;28;20028;-67
2024/02/02 01:00:56;;;;;;;29.17;16.27;;;;;;;-1.83;99.70;101012.53;5051657;28;20086;-65
2024/02/02 01:03:21;;;;;;;27.03;15.50;;;;;;;-1.97;99.16;101014.63;5052041;28;20084;-65
2024/02/02 01:05:47;;;;;;;22.13;13.33;;;;;;;-2.19;100.00;100971.22;5052265;28;20811;-64
2024/02/02 01:08:13;;;;;;;24.40;14.67;;;;;;;-2.03;100.00;101003.03;5051872;28;20142;-64
2024/02/02 01:10:38;;;;;;;23.53;13.57;;;;;;;-2.05;100.00;101004.53;5052020;28;20057;-66
2024/02/02 01:13:04;;;;;;;25.87;14.13;;;;;;;-1.99;100.00;100997.53;5051704;28;20037;-65
2024/02/02 01:15:30;;;;;;;23.47;13.73;;;;;;;-1.95;100.00;101009.72;5050932;28;20041;-68
2024/02/02 01:17:55;;;;;;;24.57;13.47;;;;;;;-2.01;100.00;101015.06;5031495;28;20489;-69
2024/02/02 01:20:21;;;;;;;24.53;13.70;;;;;;;-2.14;100.00;101017.19;5051904;28;20055;-67
2024/02/02 01:22:47;;;;;;;23.53;13.73;;;;;;;-2.45;100.00;101010.03;5051016;28;20469;-70
2024/02/02 01:25:14;;;;;;;24.83;14.63;;;;;;;-2.39;100.00;101026.53;5051423;28;20032;-66
2024/02/02 01:27:44;;;;;;;22.37;13.50;;;;;;;-2.46;100.00;101023.41;5051556;28;20083;-64
2024/02/02 01:30:12;;;;;;;;;;;;;;;-2.50;100.00;100992.66;5051809;28;20064;-65
2024/02/02 01:32:38;;;;;;;26.33;13.23;;;;;;;-2.54;100.00;100996.50;5050091;28;19916;-63
2024/02/02 01:35:04;;;;;;;24.00;12.63;;;;;;;-2.63;100.00;101006.63;5051187;28;20052;-66
2024/02/02 01:37:30;;;;;;;27.17;15.33;;;;;;;-2.64;100.00;100989.66;5050855;28;20117;-65
2024/02/02 01:39:56;;;;;;;27.03;15.83;;;;;;;-2.57;100.00;100982.69;5050667;28;20032;-64
2024/02/02 01:42:21;;;;;;;23.70;13.87;;;;;;;-2.44;100.00;100985.66;5051033;28;20163;-73
2024/02/02 01:44:48;;;;;;;23.73;13.67;;;;;;;-2.80;100.00;100903.00;5051618;28;20029;-66
2024/02/02 01:47:13;;;;;;;23.60;13.07;;;;;;;-2.35;100.00;100967.97;5050420;28;20112;-66
2024/02/02 01:49:39;;;;;;;25.30;14.73;;;;;;;-2.28;100.00;100973.75;5051478;28;20077;-66
2024/02/02 01:52:05;;;;;;;22.57;12.50;;;;;;;-2.21;100.00;100970.16;5051881;28;20454;-69
2024/02/02 01:54:31;;;;;;;23.10;12.33;;;;;;;-2.21;100.00;100977.75;5050239;28;20041;-71
2024/02/02 01:56:56;;;;;;;25.07;13.60;;;;;;;-2.29;100.00;100976.13;5050822;28;20036;-64
2024/02/02 01:59:24;;;;;;;23.97;14.27;;;;;;;-2.32;100.00;100975.81;5049309;28;20396;-68
2024/02/02 02:01:50;;;;;;;27.30;15.50;;;;;;;-2.60;100.00;100930.19;5049646;28;20033;-65
2024/02/02 02:04:15;;;;;;;25.07;14.77;;;;;;;-2.44;100.00;100948.63;5050957;28;20074;-64
2024/02/02 02:06:41;;;;;;;27.37;14.00;;;;;;;-2.73;100.00;100896.88;5051532;28;20060;-64
2024/02/02 02:09:09;;;;;;;24.73;13.53;;;;;;;-2.24;100.00;100968.97;5050520;28;20059;-65
2024/02/02 02:11:35;;;;;;;21.83;13.43;;;;;;;-2.74;100.00;100872.34;5050696;28;20162;-70
2024/02/02 02:14:01;;;;;;;29.30;14.70;;;;;;;-2.18;100.00;100967.94;5050419;28;20116;-66
2024/02/02 02:16:26;;;;;;;22.33;13.37;;;;;;;-2.33;100.00;100934.47;5045087;28;20040;-66
2024/02/02 02:18:52;;;;;;;22.50;14.60;;;;;;;-2.20;100.00;100971.94;5047716;28;20037;-66
2024/02/02 02:21:25;;;;;;;22.70;14.37;;;;;;;-2.38;100.00;100945.81;5050550;28;20037;-65
2024/02/02 02:23:50;;;;;;;25.83;15.13;;;;;;;-2.19;100.00;100963.63;5050309;28;20293;-68
2024/02/02 02:26:17;;;;;;;26.90;14.33;;;;;;;-2.38;100.00;100942.34;5041337;28;20123;-67
2024/02/02 02:28:43;;;;;;;26.80;14.60;;;;;;;-2.27;100.00;100979.69;5044145;28;20048;-65
2024/02/02 02:31:13;;;;;;;27.93;15.37;;;;;;;-2.28;100.00;100980.41;5049930;28;20029;-62
2024/02/02 02:33:39;;;;;;;22.02;13.27;;;;;;;-2.44;100.00;100946.09;5050055;28;20032;-65
2024/02/02 02:36:04;;;;;;;23.97;13.07;;;;;;;-2.12;100.00;100987.84;5050630;28;20399;-64
2024/02/02 02:38:30;;;;;;;23.80;14.30;;;;;;;-2.16;100.00;100990.84;5050232;28;20025;-63
2024/02/02 02:40:55;;;;;;;24.00;13.50;;;;;;;-2.25;100.00;100963.03;5050158;28;20036;-64
2024/02/02 02:43:21;;;;;;;23.17;14.63;;;;;;;-2.20;100.00;100992.19;5049840;28;20480;-67
2024/02/02 02:45:47;;;;;;;26.00;15.30;;;;;;;-2.21;100.00;100970.16;5050294;28;20029;-64
2024/02/02 02:48:12;;;;;;;33.93;22.40;;;;;;;-2.30;100.00;100967.63;5047108;28;20405;-65
2024/02/02 02:50:38;;;;;;;26.40;17.50;;;;;;;-2.30;100.00;100966.75;5047288;28;20041;-65
2024/02/02 02:53:03;;;;;;;30.03;16.80;;;;;;;-2.32;100.00;100968.25;5047144;28;20559;-65
2024/02/02 02:55:29;;;;;;;43.87;26.67;;;;;;;-2.29;100.00;100986.25;5047050;28;20043;-64
2024/02/02 02:57:54;;;;;;;39.13;22.40;;;;;;;-2.32;100.00;100973.28;5047854;28;20056;-64
2024/02/02 03:00:20;;;;;;;31.47;19.50;;;;;;;-2.30;100.00;100995.47;5046963;28;20043;-66
2024/02/02 03:02:46;;;;;;;24.77;14.77;;;;;;;-2.33;100.00;100974.03;5014074;28;20118;-66
2024/02/02 03:05:12;;;;;;;24.33;13.63;;;;;;;-2.56;100.00;100977.75;5030252;28;20033;-67
2024/02/02 03:07:37;;;;;;;26.80;15.17;;;;;;;-2.63;100.00;100998.13;5046908;28;20166;-66
2024/02/02 03:10:03;;;;;;;27.70;15.90;;;;;;;-3.27;100.00;100878.28;5046842;28;20045;-65
2024/02/02 03:12:29;;;;;;;28.50;15.73;;;;;;;-2.60;100.00;101000.97;5046992;28;20504;-64
2024/02/02 03:14:54;;;;;;;25.33;14.10;;;;;;;-2.61;100.00;100989.06;5046938;28;20103;-66
2024/02/02 03:17:20;;;;;;;21.87;13.13;;;;;;;-2.66;100.00;100983.56;5047647;28;20116;-63
2024/02/02 03:19:45;;;;;;;26.03;16.00;;;;;;;-3.23;100.00;100879.47;5047680;28;20504;-66
2024/02/02 03:22:11;;;;;;;24.37;14.07;;;;;;;-2.73;100.00;101008.09;5049564;28;20046;-64
2024/02/02 03:24:36;;;;;;;23.60;15.13;;;;;;;-2.82;100.00;100991.25;5050034;28;20048;-67
2024/02/02 03:27:02;;;;;;;31.67;17.10;;;;;;;-2.80;100.00;100974.63;5049822;28;20032;-68
2024/02/02 03:29:28;;;;;;;27.87;15.40;;;;;;;-2.95;100.00;100980.72;5049132;28;20039;-66
2024/02/02 03:31:53;;;;;;;26.73;15.63;;;;;;;-2.98;100.00;100980.38;5048654;28;20064;-66
2024/02/02 03:34:19;;;;;;;23.17;14.83;;;;;;;-2.78;100.00;100978.22;5047609;28;20091;-64
2024/02/02 03:36:45;;;;;;;22.90;14.43;;;;;;;-2.73;100.00;100970.16;5047266;28;20049;-66
2024/02/02 03:39:12;;;;;;;26.97;15.10;;;;;;;-2.83;100.00;100997.09;5049202;28;20110;-71
2024/02/02 03:41:38;;;;;;;27.70;14.87;;;;;;;-2.78;100.00;100982.34;5048831;28;20048;-68
2024/02/02 03:44:03;;;;;;;26.03;14.73;;;;;;;-2.68;100.00;100976.56;5049022;28;20041;-64
2024/02/02 03:46:29;;;;;;;29.83;16.30;;;;;;;-2.68;100.00;100986.69;5049640;28;20123;-66
2024/02/02 03:48:54;;;;;;;27.77;14.97;;;;;;;-2.60;100.00;101003.50;5049077;28;20029;-69
2024/02/02 03:51:20;;;;;;;28.17;15.67;;;;;;;-2.56;100.00;100999.63;5048586;28;20033;-64
2024/02/02 03:53:46;;;;;;;26.30;13.67;;;;;;;-2.54;100.00;101004.09;5046729;28;20032;-64
2024/02/02 03:56:11;;;;;;;27.60;15.00;;;;;;;-2.97;100.00;100929.13;5048870;28;20177;-64
2024/02/02 03:58:38;;;;;;;22.13;12.97;;;;;;;-2.58;100.00;101004.50;5048768;28;20039;-69
2024/02/02 04:01:04;;;;;;;25.57;14.33;;;;;;;-2.59;100.00;101020.44;5047722;28;20036;-68
2024/02/02 04:03:32;;;;;;;23.57;13.53;;;;;;;-2.61;100.00;101026.97;5049124;28;20052;-65
2024/02/02 04:05:59;;;;;;;26.77;14.27;;;;;;;-2.50;100.00;101008.69;5048801;28;20021;-66
2024/02/02 04:08:24;;;;;;;26.63;15.13;;;;;;;-2.87;100.00;100934.34;5048360;28;20033;-64
2024/02/02 04:10:50;;;;;;;21.50;12.93;;;;;;;-2.41;100.00;101025.53;5049002;28;20025;-64
2024/02/02 04:13:16;;;;;;;25.40;15.37;;;;;;;-2.58;100.00;101022.22;5048960;28;20040;-66
2024/02/02 04:15:41;;;;;;;25.87;15.53;;;;;;;-2.96;100.00;100967.16;5049144;28;20416;-64
2024/02/02 04:18:07;;;;;;;24.50;15.00;;;;;;;-2.71;100.00;101026.81;5048707;28;20036;-67
2024/02/02 04:20:33;;;;;;;27.80;15.47;;;;;;;-3.11;100.00;100946.34;5049513;28;20488;-66
2024/02/02 04:22:58;;;;;;;34.70;17.27;;;;;;;-2.86;100.00;100985.78;5048921;28;20036;-66
2024/02/02 04:25:25;;;;;;;29.03;17.30;;;;;;;-2.62;100.00;101025.19;5048895;28;20037;-63
2024/02/02 04:27:51;;;;;;;29.73;17.77;;;;;;;-2.69;100.00;101012.69;5048447;28;20033;-68
2024/02/02 04:30:17;;;;;;;27.93;17.47;;;;;;;-2.56;100.00;101022.38;5048775;28;20090;-66
2024/02/02 04:32:42;;;;;;;27.50;16.47;;;;;;;-2.52;100.00;101005.13;5048575;28;20461;-66
2024/02/02 04:35:08;;;;;;;31.93;17.63;;;;;;;-2.36;100.00;101020.16;5049457;28;20043;-64
2024/02/02 04:37:34;;;;;;;30.43;16.77;;;;;;;-2.54;100.00;100982.97;5048153;28;20056;-65
2024/02/02 04:39:59;;;;;;;28.50;17.03;;;;;;;-2.28;100.00;101014.22;5048471;28;20116;-67
2024/02/02 04:42:25;;;;;;;30.87;17.00;;;;;;;-2.20;100.00;101014.94;5048493;28;20040;-66
2024/02/02 04:44:51;;;;;;;25.37;14.07;;;;;;;-2.16;100.00;101026.25;5047311;28;20044;-66
2024/02/02 04:47:17;;;;;;;24.83;15.17;;;;;;;-2.31;100.00;101000.38;5048471;28;20040;-67
2024/02/02 04:49:43;;;;;;;28.07;15.63;;;;;;;-2.75;100.00;100937.19;5048010;28;20770;-63
2024/02/02 04:52:08;;;;;;;24.93;15.10;;;;;;;-2.38;100.00;100987.88;5048252;28;20472;-65
2024/02/02 04:54:34;;;;;;;24.97;15.20;;;;;;;-2.21;100.00;101024.94;5051324;28;20040;-65
2024/02/02 04:56:59;;;;;;;22.87;14.90;;;;;;;-2.56;100.00;100969.31;5051976;28;20059;-66
2024/02/02 04:59:26;;;;;;;27.50;15.47;;;;;;;-2.29;100.00;101032.66;5052345;28;20025;-66
2024/02/02 05:01:52;;;;;;;26.60;16.97;;;;;;;-2.16;100.00;101059.13;5050845;28;20389;-66
2024/02/02 05:04:17;;;;;;;27.37;14.83;;;;;;;-2.24;100.00;101055.88;5052158;28;20120;-64
2024/02/02 05:06:43;;;;;;;24.90;14.90;;;;;;;-2.36;100.00;101054.66;5052062;28;20032;-65
2024/02/02 05:09:08;;;;;;;26.57;16.17;;;;;;;-2.36;100.00;101073.25;5049307;28;20048;-65
2024/02/02 05:11:34;;;;;;;27.97;14.90;;;;;;;-2.49;100.00;101072.81;5049861;28;20048;-68
2024/02/02 05:14:19;;;;;;;27.80;15.53;;;;;;;-2.49;100.00;101060.19;5022850;28;20569;-66
2024/02/02 05:16:45;;;;;;;30.50;15.33;;;;;;;-2.44;100.00;101064.94;5024119;28;20046;-66
2024/02/02 05:19:11;;;;;;;25.70;14.97;;;;;;;-3.03;100.00;101002.66;5029981;28;20095;-64
2024/02/02 05:21:36;;;;;;;28.10;16.20;;;;;;;-2.77;100.00;101049.84;5029092;28;20037;-66
2024/02/02 05:24:02;;;;;;;27.27;15.87;;;;;;;-2.49;100.00;101066.09;5028626;28;20038;-68
2024/02/02 05:26:27;;;;;;;28.20;16.03;;;;;;;-2.37;100.00;101074.00;5023081;28;20048;-67
2024/02/02 05:28:53;;;;;;;27.10;14.70;;;;;;;-2.27;100.00;101075.78;5028515;28;20045;-67
2024/02/02 05:31:18;;;;;;;26.77;15.17;;;;;;;-2.26;100.00;101077.59;5029260;28;20520;-65
2024/02/02 05:33:44;;;;;;;24.80;14.57;;;;;;;-2.23;100.00;101064.34;5028550;28;20041;-66
2024/02/02 05:36:10;;;;;;;25.20;14.10;;;;;;;-2.21;100.00;101060.34;5029092;28;20040;-67
2024/02/02 05:38:37;;;;;;;22.03;14.17;;;;;;;-2.25;100.00;101053.19;5012556;28;20092;-66
2024/02/02 05:41:04;;;;;;;21.73;12.87;;;;;;;-2.25;100.00;101054.09;5028513;28;20045;-65
2024/02/02 05:43:30;;;;;;;23.90;14.53;;;;;;;-1.98;100.00;101100.53;5028393;28;20552;-66
2024/02/02 05:45:55;;;;;;;25.40;16.03;;;;;;;-1.87;100.00;101091.41;5045320;28;20460;-65
2024/02/02 05:48:21;;;;;;;150.60;64.47;;;;;;;-2.42;100.00;100988.34;5047679;28;20044;-66
2024/02/02 05:50:47;;;;;;;52.63;27.47;;;;;;;-1.84;100.00;101084.16;5050899;28;20630;-67
2024/02/02 05:53:14;;;;;;;36.07;20.70;;;;;;;-1.74;100.00;101090.97;5050975;28;20032;-65
2024/02/02 05:55:40;;;;;;;38.33;22.87;;;;;;;-1.71;100.00;101104.81;5051276;28;20060;-64
2024/02/02 05:58:05;;;;;;;32.03;15.40;;;;;;;-1.67;100.00;101096.78;5050649;28;20029;-68
2024/02/02 06:00:31;;;;;;;23.40;14.47;;;;;;;-1.88;100.00;101088.00;5051013;28;20029;-65
2024/02/02 06:02:56;;;;;;;26.23;15.87;;;;;;;-1.85;100.00;101097.53;5046363;28;20084;-67
2024/02/02 06:05:22;;;;;;;25.87;16.23;;;;;;;-2.36;100.00;101020.16;5049150;28;20033;-66
2024/02/02 06:07:47;;;;;;;29.43;16.70;;;;;;;-1.89;100.00;101118.25;5042021;28;20112;-66
2024/02/02 06:10:13;;;;;;;30.83;14.83;;;;;;;-2.03;100.00;101097.53;5048616;28;20114;-65
2024/02/02 06:12:38;;;;;;;28.60;16.87;;;;;;;-1.90;100.00;101122.38;5050321;28;20090;-66
2024/02/02 06:15:06;;;;;;;26.80;15.97;;;;;;;-2.08;100.00;101097.81;5050722;28;20052;-68
2024/02/02 06:17:31;;;;;;;25.33;16.13;;;;;;;-1.86;100.00;101148.91;5050747;28;20503;-65
2024/02/02 06:19:57;;;;;;;26.77;15.97;;;;;;;-1.79;100.00;101134.44;5051021;28;20108;-68
2024/02/02 06:22:22;;;;;;;28.40;15.70;;;;;;;-1.69;100.00;101146.34;5050197;28;20033;-70
2024/02/02 06:24:48;;;;;;;25.97;15.67;;;;;;;-1.66;100.00;101140.69;5049647;28;20025;-71
2024/02/02 06:27:14;;;;;;;25.07;16.00;;;;;;;-1.58;100.00;101149.03;5049631;28;20112;-71
2024/02/02 06:29:39;;;;;;;31.10;16.80;;;;;;;-1.49;100.00;101148.28;5049971;28;20633;-71
2024/02/02 06:32:05;;;;;;;30.50;17.60;;;;;;;-1.43;100.00;101155.56;5050112;28;20512;-69
2024/02/02 06:34:31;;;;;;;29.03;17.97;;;;;;;-1.37;100.00;101145.13;5049925;28;20028;-72
2024/02/02 06:36:57;;;;;;;29.47;17.93;;;;;;;-1.38;100.00;101133.22;5050281;28;20028;-69
2024/02/02 06:39:23;;;;;;;24.93;15.03;;;;;;;-1.38;100.00;101133.22;5047981;28;20067;-67
2024/02/02 06:41:49;;;;;;;27.33;15.07;;;;;;;-2.21;100.00;100986.97;5031054;28;20493;-67
2024/02/02 06:44:16;;;;;;;26.60;16.10;;;;;;;-1.27;100.00;101145.28;5050274;28;20773;-68
2024/02/02 06:46:41;;;;;;;25.20;15.40;;;;;;;-1.27;100.00;101144.38;5050751;28;20115;-73
2024/02/02 06:49:07;;;;;;;33.20;17.13;;;;;;;-1.21;100.00;101155.06;5049543;28;20571;-68
2024/02/02 06:51:32;;;;;;;36.93;20.70;;;;;;;-1.20;100.00;101154.34;5030188;28;20063;-72
2024/02/02 06:53:59;;;;;;;29.17;17.67;;;;;;;-1.39;100.00;101131.44;5049686;28;20028;-70
2024/02/02 06:56:46;;;;;;;27.87;17.33;;;;;;;-1.21;100.00;101163.59;5050656;28;20033;-71
2024/02/02 06:59:11;;;;;;;30.20;16.50;;;;;;;-1.67;100.00;101068.94;5049379;28;20082;-71
2024/02/02 07:01:38;;;;;;;23.47;15.00;;;;;;;-1.14;100.00;101152.38;5049714;28;20040;-67
2024/02/02 07:04:11;;;;;;;28.90;16.07;;;;;;;-1.10;100.00;101166.25;5049409;28;20060;-67
2024/02/02 07:06:37;;;;;;;24.67;15.03;;;;;;;-1.28;100.00;101148.53;5050490;28;20048;-70
2024/02/02 07:09:29;;;;;;;30.40;15.77;;;;;;;-1.36;100.00;101141.84;5048988;28;20037;-67
2024/02/02 07:12:10;;;;;;;23.10;14.80;;;;;;;-1.14;100.00;101176.06;5048092;28;20037;-68
2024/02/02 07:14:49;;;;;;;27.23;16.43;;;;;;;-1.37;100.00;101150.19;5049508;28;20127;-71
2024/02/02 07:17:35;;;;;;;30.95;17.17;;;;;;;-1.32;100.00;101174.34;5017364;28;20045;-69
2024/02/02 07:20:04;;;;;;;29.13;17.10;;;;;;;-1.58;100.00;101114.47;5046694;28;20029;-69
2024/02/02 07:22:36;;;;;;;36.90;22.90;;;;;;;-1.14;100.00;101183.66;5018552;28;20041;-66
2024/02/02 07:25:08;;;;;;;29.33;17.90;;;;;;;-1.45;100.00;101097.94;5048390;28;20114;-67
2024/02/02 07:28:06;;;;;;;28.43;15.47;;;;;;;-0.78;100.00;101196.28;5047664;28;20422;-69
2024/02/02 07:30:59;;;;;;;25.30;15.07;;;;;;;-1.42;100.00;101045.03;4986567;28;20121;-65
2024/02/02 07:33:43;;;;;;;26.40;15.03;;;;;;;-0.64;100.00;101170.53;4982018;28;20545;-64
2024/02/02 07:36:33;;;;;;;27.27;16.73;;;;;;;-0.31;100.00;101189.66;4987056;28;20038;-67
2024/02/02 07:38:59;;;;;;;29.60;19.60;;;;;;;-0.18;100.00;101195.06;4967925;28;20039;-67
2024/02/02 07:41:27;;;;;;;31.07;18.77;;;;;;;-0.05;100.00;101192.03;4986980;28;20046;-66
2024/02/02 07:43:54;;;;;;;26.67;15.40;;;;;;;-0.22;100.00;101147.34;4987045;28;20122;-66
2024/02/02 07:46:20;;;;;;;30.97;15.53;;;;;;;0.06;100.00;101182.81;4979707;28;20038;-65
2024/02/02 07:48:47;;;;;;;27.47;15.97;;;;;;;-0.08;100.00;101137.56;4944001;29;20079;-66
2024/02/02 07:51:15;;;;;;;22.07;13.33;;;;;;;0.38;100.00;101202.63;4945332;29;20500;-66
2024/02/02 07:53:46;;;;;;;25.60;14.87;;;;;;;-0.10;100.00;101106.97;4945611;29;20043;-64
2024/02/02 07:56:12;;;;;;;26.27;14.97;;;;;;;0.54;100.00;101207.41;4946466;29;20541;-66
2024/02/02 07:58:39;;;;;;;25.53;15.80;;;;;;;0.57;100.00;101199.19;4949718;29;20047;-66
2024/02/02 08:01:06;;;;;;;26.77;15.97;;;;;;;0.64;100.00;101206.59;4948370;29;20096;-66
2024/02/02 08:03:33;;;;;;;27.30;15.90;;;;;;;0.70;100.00;101212.22;4948362;29;20102;-68
2024/02/02 08:05:59;;;;;;;32.53;19.07;;;;;;;0.68;100.00;101217.94;4949484;29;20066;-66
2024/02/02 08:08:24;;;;;;;29.37;17.57;;;;;;;0.72;100.00;101220.84;5016965;28;20076;-65
2024/02/02 08:10:51;;;;;;;32.33;18.30;;;;;;;0.75;100.00;101221.13;5026745;28;20091;-67
2024/02/02 08:13:19;;;;;;;34.30;18.83;;;;;;;0.71;100.00;101210.56;5026126;28;20029;-66
2024/02/02 08:15:46;;;;;;;31.37;17.73;;;;;;;0.73;100.00;101209.94;5026399;28;20091;-66
2024/02/02 08:18:12;;;;;;;34.13;19.63;;;;;;;0.75;100.00;101218.59;5026320;28;20045;-66
2024/02/02 08:20:37;;;;;;;31.67;17.57;;;;;;;0.74;100.00;101216.81;5042721;28;20134;-66
2024/02/02 08:23:04;;;;;;;34.13;18.67;;;;;;;0.72;100.00;101212.34;5048739;28;20555;-66
2024/02/02 08:25:30;;;;;;;31.40;17.47;;;;;;;0.83;100.00;101218.38;5048910;28;20033;-72
2024/02/02 08:27:56;;;;;;;26.67;16.67;;;;;;;0.88;100.00;101228.19;5050057;28;20033;-64
2024/02/02 08:30:23;;;;;;;27.17;16.83;;;;;;;0.96;100.00;101226.34;5052613;28;20041;-67
2024/02/02 08:32:51;;;;;;;29.77;17.23;;;;;;;0.99;100.00;101224.06;5035731;28;20034;-65
2024/02/02 08:35:28;;;;;;;42.75;24.30;;;;;;;1.06;100.00;101226.38;5053207;28;20033;-67
2024/02/02 08:37:58;;;;;;;35.83;22.55;;;;;;;1.13;100.00;101228.69;5052923;28;20021;-66
2024/02/02 08:40:38;;;;;;;36.13;20.50;;;;;;;1.15;100.00;101217.75;5049958;28;20036;-66
2024/02/02 08:43:08;;;;;;;57.65;28.48;;;;;;;1.22;100.00;101232.78;5052515;28;20029;-67
2024/02/02 08:45:44;;;;;;;55.75;26.63;;;;;;;1.21;100.00;101224.28;5053470;28;20036;-66
2024/02/02 08:48:27;;;;;;;54.47;25.17;;;;;;;1.05;100.00;101201.69;5052562;28;20144;-66
2024/02/02 08:50:57;;;;;;;41.73;22.47;;;;;;;1.23;100.00;101229.47;5052494;28;20020;-67
2024/02/02 08:53:24;;;;;;;43.33;21.93;;;;;;;1.22;100.00;101232.78;5050685;28;20025;-66
2024/02/02 08:55:51;;;;;;;44.35;22.42;;;;;;;1.29;100.00;101233.44;5051185;28;20127;-67
2024/02/02 08:58:19;;;;;;;42.40;22.20;;;;;;;1.31;100.00;101236.13;5051839;28;20460;-68
2024/02/02 09:00:45;;;;;;;40.78;21.65;;;;;;;0.89;100.00;101156.25;5052035;28;20033;-66
2024/02/02 09:03:24;;;;;;;40.13;21.33;;;;;;;1.37;100.00;101236.66;5052449;28;20072;-66
2024/02/02 09:05:57;;;;;;;45.65;26.55;;;;;;;1.36;100.00;101239.06;5052603;28;20044;-67
2024/02/02 09:08:40;;;;;;;38.53;18.33;;;;;;;1.40;100.00;101252.19;5052033;28;20063;-67
2024/02/02 09:11:11;;;;;;;29.88;18.40;;;;;;;1.43;100.00;101254.09;5052165;28;20559;-67
2024/02/02 09:13:40;;;;;;;54.75;33.45;;;;;;;1.32;100.00;101225.22;5051890;28;20029;-67
2024/02/02 09:16:08;;;;;;;33.15;22.33;;;;;;;1.33;100.00;101229.50;5052858;28;20469;-66
2024/02/02 09:18:39;;;;;;;39.22;18.80;;;;;;;1.45;100.00;101253.47;5052133;28;20439;-67
2024/02/02 09:21:07;;;;;;;26.70;17.23;;;;;;;1.49;100.00;101253.75;5051842;28;20067;-73
2024/02/02 09:23:34;;;;;;;30.73;19.13;;;;;;;1.51;100.00;101242.94;5051949;28;20065;-65
2024/02/02 09:26:00;;;;;;;25.75;15.23;;;;;;;1.02;100.00;101167.47;5052303;28;20036;-66
2024/02/02 09:28:28;;;;;;;23.98;15.30;;;;;;;1.40;100.00;101234.38;5051610;28;20107;-66
2024/02/02 09:31:02;;;;;;;29.45;16.15;;;;;;;1.12;100.00;101175.13;5051857;28;20044;-68
2024/02/02 09:33:31;;;;;;;26.67;15.88;;;;;;;1.57;100.00;101248.56;5051717;28;20078;-67
2024/02/02 09:36:03;;;;;;;32.72;16.95;;;;;;;1.55;100.00;101244.09;5047049;28;20036;-70
2024/02/02 09:38:32;;;;;;;24.10;15.13;;;;;;;1.58;100.00;101246.88;5051456;28;20104;-67
2024/02/02 09:41:00;;;;;;;26.65;15.52;;;;;;;1.63;100.00;101248.16;5051153;28;20039;-67
2024/02/02 09:43:50;;;;;;;30.08;16.95;;;;;;;1.68;100.00;101251.13;5051547;28;20068;-66
2024/02/02 09:46:44;;;;;;;29.95;16.88;;;;;;;1.70;100.00;101257.25;5052460;28;20040;-66
2024/02/02 09:49:22;;;;;;;26.85;15.80;;;;;;;1.70;100.00;101253.03;5051665;28;20151;-66
2024/02/02 09:51:53;;;;;;;27.27;15.32;;;;;;;1.69;100.00;101250.34;5051294;28;20158;-70
2024/02/02 09:54:37;;;;;;;24.92;15.68;;;;;;;1.73;100.00;101248.22;5051559;28;20141;-67
2024/02/02 09:57:14;;;;;;;26.60;15.18;;;;;;;1.53;100.00;101200.69;5044222;28;20036;-72
2024/02/02 10:00:19;;;;;;;24.75;15.75;;;;;;;1.80;100.00;101241.97;5003457;28;20055;-68
2024/02/02 10:03:07;;;;;;;26.80;16.45;;;;;;;1.86;100.00;101254.34;5008940;28;20117;-66
2024/02/02 10:06:00;;;;;;;36.33;19.13;;;;;;;1.97;100.00;101240.84;5000395;28;20124;-71
2024/02/02 10:08:44;;;;;;;36.35;20.90;;;;;;;1.88;100.00;101229.88;5001996;28;20052;-66
2024/02/02 10:11:23;;;;;;;54.00;30.50;;;;;;;1.82;100.00;101244.63;5008795;28;20034;-64
2024/02/02 10:13:57;;;;;;;42.08;23.52;;;;;;;1.95;100.00;101244.91;5008532;28;20049;-67
2024/02/02 10:16:37;;;;;;;35.90;20.55;;;;;;;1.93;100.00;101229.53;5009466;28;20540;-65
2024/02/02 10:19:11;;;;;;;40.05;22.98;;;;;;;1.59;100.00;101179.97;5008388;28;20038;-64
2024/02/02 10:22:05;;;;;;;34.95;19.42;;;;;;;2.00;100.00;101246.19;5008599;28;20041;-66
2024/02/02 10:24:51;;;;;;;29.73;19.10;;;;;;;1.76;100.00;101184.81;5001884;28;20033;-66
2024/02/02 10:27:32;;;;;;;32.20;19.48;;;;;;;1.66;100.00;101164.44;5008517;28;20076;-66
2024/02/02 10:30:23;;;;;;;29.85;16.75;;;;;;;2.13;100.00;101235.41;5011066;28;20030;-65
2024/02/02 10:33:27;;;;;;;30.00;14.15;;;;;;;2.09;100.00;101244.44;5050391;28;20484;-65
2024/02/02 10:36:22;;;;;;;31.83;15.63;;;;;;;2.13;100.00;101243.03;5024459;28;20041;-64
2024/02/02 10:39:06;;;;;;;35.33;17.33;;;;;;;2.06;100.00;101230.53;5019899;28;20036;-67
2024/02/02 10:41:55;;;;;;;29.33;14.57;;;;;;;2.21;100.00;101254.72;5027769;28;20049;-66
2024/02/02 10:44:26;;;;;;;36.40;15.73;;;;;;;2.24;100.00;101239.72;5020207;28;20040;-68
2024/02/02 10:47:13;;;;;;;40.90;17.80;;;;;;;2.22;100.00;101232.72;5027532;28;20041;-66
2024/02/02 10:49:56;;;;;;;34.20;17.15;;;;;;;2.25;100.00;101240.59;5026896;28;20041;-72
2024/02/02 10:52:42;;;;;;;35.72;17.40;;;;;;;2.34;100.00;101248.09;5026960;28;20045;-66
2024/02/02 10:55:43;;;;;;;41.92;17.60;;;;;;;2.39;100.00;101232.44;5027231;28;20041;-68
2024/02/02 10:58:20;;;;;;;45.33;18.05;;;;;;;2.48;100.00;101242.50;4977952;28;20048;-65
2024/02/02 11:01:04;;;;;;;34.28;17.42;;;;;;;2.51;100.00;101231.66;5018931;28;20049;-65
2024/02/02 11:03:41;;;;;;;43.85;19.48;;;;;;;2.55;100.00;101232.00;5027270;28;20061;-67
2024/02/02 11:06:18;;;;;;;30.45;18.25;;;;;;;2.65;100.00;101248.06;5034183;28;20111;-70
2024/02/02 11:08:54;;;;;;;37.90;18.90;;;;;;;2.66;100.00;101229.47;5044872;28;20040;-67
2024/02/02 11:11:25;;;;;;;35.97;20.45;;;;;;;2.70;100.00;101241.69;5047916;28;20064;-67
2024/02/02 11:14:06;;;;;;;35.67;19.52;;;;;;;2.74;100.00;101242.06;5049312;28;20512;-67